ěÝzenÝ letovÚho provozu ╚eskÚ republiky
Letiste: LKPD Aktualizace: 21.09.2021 03:57:27  UTC
 METAR LKPD 21.09. 04:00 ...
METAR LKPD 210400Z 26003KT CAVOK 10/08 Q1025 RMK BLACK=
 TAF LKPD 20.09. 11:00 AAA
TAF AMD LKPD 201300Z 2012/2112 CNL=